Time;durP1;ratioP1;P1;durP2;ratioP2;P2;SDS_P1;SDS_P2;PMS_P1;PMS_P2;Temp;Humidity;BMP_temperature;BMP_pressure;BME280_temperature;BME280_humidity;BME280_pressure;Samples;Min_cycle;Max_cycle;Signal;HPM_P1;HPM_P2
2022/04/11 00:00:49;;;;;;;;;6.25;6.25;;;;;13.08;41.47;100979.66;2105171;28;47824;-57
2022/04/11 00:01:50;;;;;;;;;5.25;5.25;;;;;13.07;41.46;100972.59;2096628;28;47102;-59
2022/04/11 00:02:50;;;;;;;;;5.00;5.00;;;;;13.09;41.52;100977.91;2087504;28;47202;-57
2022/04/11 00:03:51;;;;;;;;;4.75;4.75;;;;;13.08;41.37;100985.00;2095868;28;47679;-57
2022/04/11 00:04:51;;;;;;;;;7.00;7.00;;;;;13.06;41.39;100978.84;2105473;27;47600;-59
2022/04/11 00:05:52;;;;;;;;;5.25;5.00;;;;;13.07;41.55;100979.72;2105227;27;47807;-58
2022/04/11 00:06:53;;;;;;;;;5.50;4.75;;;;;13.06;41.32;100970.84;2105596;28;47353;-57
2022/04/11 00:07:53;;;;;;;;;5.40;5.40;;;;;13.06;41.49;100972.63;2105569;27;47766;-56
2022/04/11 00:08:53;;;;;;;;;6.75;6.75;;;;;13.04;41.43;100967.34;2105892;27;48589;-57
2022/04/11 00:09:54;;;;;;;;;7.00;5.75;;;;;13.06;41.30;100964.63;2105875;27;47333;-59
2022/04/11 00:10:54;;;;;;;;;6.00;6.00;;;;;13.04;41.49;100967.34;2105589;27;47401;-59
2022/04/11 00:11:56;;;;;;;;;6.25;5.50;;;;;13.04;41.43;100969.13;2104891;28;47518;-56
2022/04/11 00:13:04;;;;;;;;;5.00;5.00;;;;;13.04;41.33;100963.81;2103592;27;47641;-58
2022/04/11 00:14:04;;;;;;;;;6.00;5.80;;;;;13.03;41.32;100970.94;2103646;27;48085;-53
2022/04/11 00:15:06;;;;;;;;;6.80;5.60;;;;;13.02;41.33;100960.31;2107715;27;47978;-58
2022/04/11 00:16:07;;;;;;;;;7.00;5.40;;;;;13.02;41.26;100974.50;2110712;27;47972;-57
2022/04/11 00:17:07;;;;;;;;;5.00;5.00;;;;;13.02;41.38;100965.66;2108275;27;47374;-58
2022/04/11 00:18:08;;;;;;;;;4.75;4.75;;;;;13.03;41.27;100964.72;2102404;28;47226;-58
2022/04/11 00:19:09;;;;;;;;;4.00;4.00;;;;;13.02;41.78;100968.31;2101289;28;47298;-58
2022/04/11 00:20:09;;;;;;;;;5.00;5.00;;;;;13.01;41.22;100967.44;2108053;27;47408;-56
2022/04/11 00:21:10;;;;;;;;;5.75;5.75;;;;;13.01;41.30;100961.25;2113266;27;47981;-57
2022/04/11 00:22:11;;;;;;;;;5.20;4.60;;;;;13.00;41.39;100962.16;2108694;27;47656;-58
2022/04/11 00:23:11;;;;;;;;;4.00;4.00;;;;;12.99;41.29;100965.75;2109612;27;47993;-57
2022/04/11 00:24:12;;;;;;;;;4.00;4.00;;;;;12.98;41.30;100962.22;2107619;27;47976;-57
2022/04/11 00:25:12;;;;;;;;;3.50;3.50;;;;;12.98;41.18;100964.88;2087563;28;47592;-55
2022/04/11 00:26:12;;;;;;;;;4.25;4.25;;;;;12.97;41.35;100963.13;2092006;28;47520;-57
2022/04/11 00:27:13;;;;;;;;;4.00;4.00;;;;;12.95;41.06;100962.25;2107576;27;46658;-56
2022/04/11 00:28:13;;;;;;;;;5.50;5.50;;;;;12.95;41.30;100962.25;2107460;27;47562;-56
2022/04/11 00:29:14;;;;;;;;;6.25;4.75;;;;;12.96;41.47;100962.25;2109768;27;48110;-57
2022/04/11 00:30:14;;;;;;;;;5.50;4.25;;;;;12.97;41.35;100963.13;2105850;27;47732;-57
2022/04/11 00:31:15;;;;;;;;;6.00;5.00;;;;;12.97;41.28;100960.47;2109085;27;47777;-57
2022/04/11 00:32:15;;;;;;;;;3.25;3.25;;;;;12.98;41.25;100956.88;2101813;27;47697;-58
2022/04/11 00:33:15;;;;;;;;;5.25;5.25;;;;;12.98;41.30;100954.22;2104815;28;47740;-58
2022/04/11 00:34:16;;;;;;;;;4.75;4.75;;;;;12.97;41.30;100949.81;2107875;27;46374;-57
2022/04/11 00:35:16;;;;;;;;;4.50;4.25;;;;;12.98;41.30;100951.56;2110111;27;47418;-48
2022/04/11 00:36:17;;;;;;;;;5.50;5.50;;;;;12.96;41.32;100948.94;2110495;27;47656;-47
2022/04/11 00:37:18;;;;;;;;;3.50;3.50;;;;;12.96;41.22;100945.41;2109820;27;47886;-49
2022/04/11 00:38:18;;;;;;;;;4.25;4.25;;;;;12.95;41.23;100941.81;2106315;27;47941;-49
2022/04/11 00:39:18;;;;;;;;;5.00;5.00;;;;;12.96;41.12;100940.06;2108758;27;47489;-51
2022/04/11 00:40:19;;;;;;;;;5.00;5.00;;;;;12.95;41.24;100940.97;2108596;27;47501;-49
2022/04/11 00:41:20;;;;;;;;;3.00;3.00;;;;;12.95;41.22;100935.63;2105556;27;47524;-47
2022/04/11 00:42:20;;;;;;;;;5.00;5.00;;;;;12.94;41.39;100926.75;2109740;27;47224;-49
2022/04/11 00:43:33;;;;;;;;;4.25;4.00;;;;;12.94;41.22;100923.22;2107654;27;47496;-50
2022/04/11 00:44:34;;;;;;;;;4.00;4.00;;;;;12.92;41.15;100914.41;2105274;27;47271;-47
2022/04/11 00:45:34;;;;;;;;;4.00;4.00;;;;;12.91;41.28;100910.00;2109629;27;47723;-49
2022/04/11 00:46:35;;;;;;;;;4.00;4.00;;;;;12.91;41.19;100920.66;2107593;27;47781;-48
2022/04/11 00:47:36;;;;;;;;;1.25;1.25;;;;;12.90;41.15;100908.25;2105762;27;47775;-51
2022/04/11 00:48:37;;;;;;;;;5.50;5.50;;;;;12.90;41.01;100910.91;2111040;27;47351;-51
2022/04/11 00:49:37;;;;;;;;;5.20;5.20;;;;;12.88;41.46;100908.31;2101012;27;47890;-48
2022/04/11 00:50:38;;;;;;;;;5.25;5.25;;;;;12.87;41.68;100895.91;2113532;27;47637;-47
2022/04/11 00:51:39;;;;;;;;;4.75;4.00;;;;;12.88;41.36;100899.44;2082416;28;47364;-51
2022/04/11 00:52:44;;;;;;;;;4.20;4.20;;;;;12.89;41.54;100906.50;2079069;28;48051;-48
2022/04/11 00:53:46;;;;;;;;;6.40;4.20;;;;;12.87;41.04;100898.56;2104671;27;47528;-48
2022/04/11 00:54:46;;;;;;;;;3.00;3.00;;;;;12.86;41.25;100898.63;2111671;27;47970;-51
2022/04/11 00:55:47;;;;;;;;;5.00;5.00;;;;;12.84;41.52;100896.00;2105974;27;47470;-52
2022/04/11 00:56:48;;;;;;;;;3.00;3.00;;;;;12.85;41.15;100894.22;2109248;27;47514;-49
2022/04/11 00:57:48;;;;;;;;;4.75;4.75;;;;;12.84;40.99;100896.00;2107443;27;47797;-52
2022/04/11 00:58:50;;;;;;;;;3.00;3.00;;;;;12.84;41.16;100898.66;2107186;27;48092;-50
2022/04/11 00:59:52;;;;;;;;;4.40;3.40;;;;;12.84;41.47;100888.00;2107000;27;47723;-53
2022/04/11 01:00:52;;;;;;;;;4.00;4.00;;;;;12.83;41.11;100894.25;2105960;27;47722;-53
2022/04/11 01:01:54;;;;;;;;;5.75;5.75;;;;;12.82;41.05;100896.94;2105587;27;47434;-50
2022/04/11 01:02:54;;;;;;;;;5.00;4.40;;;;;12.80;41.10;100891.66;2105226;28;47857;-50
2022/04/11 01:03:54;;;;;;;;;4.00;4.00;;;;;12.79;41.16;100892.56;2101041;28;47716;-48
2022/04/11 01:04:55;;;;;;;;;6.00;4.25;;;;;12.78;41.08;100888.16;2098428;28;48101;-51
2022/04/11 01:05:55;;;;;;;;;2.00;2.00;;;;;12.78;41.26;100888.16;2104800;27;47298;-49
2022/04/11 01:06:59;;;;;;;;;4.00;4.00;;;;;12.79;41.14;100881.91;2108492;27;46785;-51
2022/04/11 01:08:07;;;;;;;;;3.40;3.40;;;;;12.79;41.09;100884.59;2108558;27;47525;-50
2022/04/11 01:09:08;;;;;;;;;3.80;3.80;;;;;12.80;41.14;100882.78;2105472;28;47872;-47
2022/04/11 01:10:09;;;;;;;;;6.00;3.00;;;;;12.79;41.16;100873.06;2108073;27;47429;-50
2022/04/11 01:11:09;;;;;;;;;3.50;3.00;;;;;12.79;41.10;100883.72;2109238;27;47549;-50
2022/04/11 01:12:11;;;;;;;;;4.00;4.00;;;;;12.79;40.92;100870.41;2107931;27;46758;-50
2022/04/11 01:13:12;;;;;;;;;4.00;4.00;;;;;12.78;40.95;100871.31;2095814;28;47536;-50
2022/04/11 01:14:12;;;;;;;;;3.00;3.00;;;;;12.78;40.98;100874.84;2086737;28;47388;-51
2022/04/11 01:15:13;;;;;;;;;4.00;4.00;;;;;12.78;40.92;100874.84;2100508;28;47339;-49
2022/04/11 01:16:13;;;;;;;;;3.00;3.00;;;;;12.77;41.00;100856.25;2107217;27;46949;-51
2022/04/11 01:17:13;;;;;;;;;4.00;4.00;;;;;12.77;40.93;100862.44;2112497;27;48085;-48
2022/04/11 01:18:14;;;;;;;;;3.00;3.00;;;;;12.78;41.01;100866.00;2108409;27;47617;-51
2022/04/11 01:19:15;;;;;;;;;3.00;3.00;;;;;12.78;40.99;100868.66;2100052;28;47790;-51
2022/04/11 01:20:19;;;;;;;;;3.00;3.00;;;;;12.76;40.96;100860.72;2102985;28;47890;-49
2022/04/11 01:21:19;;;;;;;;;6.40;6.00;;;;;12.76;41.24;100857.19;2107468;27;48232;-51
2022/04/11 01:22:20;;;;;;;;;4.25;3.75;;;;;12.76;41.00;100858.03;2109669;27;47836;-50
2022/04/11 01:23:20;;;;;;;;;5.00;5.00;;;;;12.75;40.88;100855.44;2104851;27;47784;-53
2022/04/11 01:24:22;;;;;;;;;3.75;3.75;;;;;12.75;40.70;100856.31;2105556;27;47353;-48
2022/04/11 01:25:22;;;;;;;;;4.00;4.00;;;;;12.75;40.73;100850.09;2111758;27;47525;-52
2022/04/11 01:26:25;;;;;;;;;5.00;4.67;;;;;12.76;40.70;100855.38;2109040;27;47662;-52
2022/04/11 01:27:25;;;;;;;;;4.20;4.20;;;;;12.76;41.05;100847.41;2107581;27;48318;-49
2022/04/11 01:28:26;;;;;;;;;4.33;4.33;;;;;12.76;40.76;100843.84;2112288;27;47407;-50
2022/04/11 01:29:27;;;;;;;;;5.00;5.00;;;;;12.76;40.89;100846.53;2107938;27;47518;-51
2022/04/11 01:30:28;;;;;;;;;4.50;4.50;;;;;12.76;40.71;100851.84;2109176;27;47875;-50
2022/04/11 01:31:28;;;;;;;;;3.33;3.33;;;;;12.75;40.95;100847.44;2105006;28;47500;-50
2022/04/11 01:32:28;;;;;;;;;3.67;3.33;;;;;12.75;40.77;100844.78;2105826;27;47170;-51
2022/04/11 01:33:29;;;;;;;;;2.67;2.67;;;;;12.74;40.79;100845.69;2110742;27;47699;-52
2022/04/11 01:34:30;;;;;;;;;3.00;3.00;;;;;12.72;40.67;100837.75;2109377;27;47752;-47
2022/04/11 01:35:30;;;;;;;;;3.00;3.00;;;;;12.73;40.69;100833.31;2107556;27;47382;-50
2022/04/11 01:36:31;;;;;;;;;5.00;4.00;;;;;12.72;40.83;100843.09;2110571;27;47957;-48
2022/04/11 01:37:34;;;;;;;;;1.67;1.67;;;;;12.72;40.75;100840.41;2107411;27;47490;-50
2022/04/11 01:38:34;;;;;;;;;3.00;3.00;;;;;12.71;40.90;100838.69;2108678;27;47527;-50
2022/04/11 01:39:36;;;;;;;;;3.00;3.00;;;;;12.72;41.07;100836.88;2111030;27;48209;-49
2022/04/11 01:40:37;;;;;;;;;3.00;3.00;;;;;12.71;40.97;100837.81;2107147;27;47729;-50
2022/04/11 01:41:37;;;;;;;;;3.25;3.25;;;;;12.71;40.92;100837.81;2091832;28;47628;-51
2022/04/11 01:42:38;;;;;;;;;4.00;4.00;;;;;12.70;41.00;100836.91;2090984;28;47584;-50
2022/04/11 01:43:38;;;;;;;;;3.50;3.50;;;;;12.68;40.71;100833.41;2106417;27;47492;-51
2022/04/11 01:44:39;;;;;;;;;3.00;3.00;;;;;12.68;40.82;100834.28;2113130;27;47765;-48
2022/04/11 01:45:39;;;;;;;;;2.67;2.67;;;;;12.68;41.13;100830.75;2109454;27;47364;-51
2022/04/11 01:46:40;;;;;;;;;3.67;3.67;;;;;12.66;40.79;100822.81;2110677;27;47873;-50
2022/04/11 01:47:41;;;;;;;;;4.25;4.25;;;;;12.67;41.13;100831.69;2109378;27;48015;-50
2022/04/11 01:48:41;;;;;;;;;5.20;5.20;;;;;12.67;41.19;100826.34;2107554;27;47544;-49
2022/04/11 01:49:42;;;;;;;;;3.00;3.00;;;;;12.66;40.92;100828.13;2104391;27;47523;-52
2022/04/11 01:50:43;;;;;;;;;2.67;2.67;;;;;12.65;41.03;100828.19;2110016;27;48397;-48
2022/04/11 01:51:43;;;;;;;;;4.00;4.00;;;;;12.63;41.03;100833.56;2110877;27;47581;-49
2022/04/11 01:52:44;;;;;;;;;5.25;4.00;;;;;12.62;41.14;100825.63;2104994;28;47338;-51
2022/04/11 01:53:44;;;;;;;;;4.00;4.00;;;;;12.61;41.01;100822.09;2110188;27;47801;-47
2022/04/11 01:54:45;;;;;;;;;3.25;3.00;;;;;12.60;41.00;100819.47;2110732;27;47819;-50
2022/04/11 01:55:46;;;;;;;;;3.00;3.00;;;;;12.59;41.16;100818.59;2112877;27;48158;-48
2022/04/11 01:56:47;;;;;;;;;3.80;3.80;;;;;12.59;40.89;100828.38;2109362;27;48086;-49
2022/04/11 01:57:47;;;;;;;;;6.40;4.00;;;;;12.58;41.05;100830.16;2097625;27;47665;-50
2022/04/11 01:58:48;;;;;;;;;3.67;3.67;;;;;12.56;41.24;100816.00;2111354;27;47569;-51
2022/04/11 01:59:48;;;;;;;;;4.00;4.00;;;;;12.56;41.25;100815.13;2106982;27;47984;-51
2022/04/11 02:00:49;;;;;;;;;4.00;4.00;;;;;12.55;41.33;100816.91;2113205;27;47685;-49
2022/04/11 02:01:49;;;;;;;;;3.50;3.00;;;;;12.54;41.29;100814.31;2109136;27;47766;-49
2022/04/11 02:02:49;;;;;;;;;5.75;5.75;;;;;12.55;41.31;100813.38;2104468;27;47761;-52
2022/04/11 02:03:50;;;;;;;;;4.75;3.75;;;;;12.54;41.17;100812.50;2112917;27;45898;-47
2022/04/11 02:04:50;;;;;;;;;5.00;5.00;;;;;12.52;41.14;100810.81;2110892;27;47408;-49
2022/04/11 02:05:51;;;;;;;;;3.75;3.75;;;;;12.52;41.29;100808.16;2111763;27;47548;-51
2022/04/11 02:06:51;;;;;;;;;5.00;4.00;;;;;12.50;41.22;100810.88;2111580;27;47584;-49
2022/04/11 02:07:52;;;;;;;;;4.00;4.00;;;;;12.50;41.19;100810.00;2110306;27;47765;-49
2022/04/11 02:08:53;;;;;;;;;3.60;3.60;;;;;12.49;41.04;100816.22;2113063;27;47868;-49
2022/04/11 02:09:53;;;;;;;;;3.50;3.50;;;;;12.47;41.06;100808.28;2110427;27;47711;-49
2022/04/11 02:10:54;;;;;;;;;5.00;5.00;;;;;12.47;41.15;100813.63;2110150;27;47485;-46
2022/04/11 02:11:54;;;;;;;;;4.75;4.00;;;;;12.46;41.09;100805.69;2111902;27;48078;-51
2022/04/11 02:12:56;;;;;;;;;2.00;2.00;;;;;12.43;41.25;100806.59;2106866;27;47374;-50
2022/04/11 02:13:56;;;;;;;;;2.40;2.40;;;;;12.43;40.91;100809.28;2110097;27;47658;-48
2022/04/11 02:14:56;;;;;;;;;4.33;4.33;;;;;12.43;41.37;100805.75;2111876;27;47180;-50
2022/04/11 02:15:59;;;;;;;;;4.00;4.00;;;;;12.43;41.16;100805.75;2111107;27;45570;-51
2022/04/11 02:16:59;;;;;;;;;4.00;4.00;;;;;12.41;41.29;100800.47;2104413;28;47918;-49
2022/04/11 02:18:00;;;;;;;;;3.33;3.33;;;;;12.41;41.33;100803.13;2101549;28;47618;-48
2022/04/11 02:19:00;;;;;;;;;3.33;3.33;;;;;12.41;41.19;100805.78;2100881;28;47710;-50
2022/04/11 02:20:01;;;;;;;;;4.00;4.00;;;;;12.41;41.29;100804.91;2113489;27;47604;-51
2022/04/11 02:21:01;;;;;;;;;3.00;3.00;;;;;12.38;41.23;100798.75;2110441;27;47605;-51
2022/04/11 02:22:02;;;;;;;;;6.50;5.00;;;;;12.38;41.14;100798.75;2113347;27;47873;-54
2022/04/11 02:23:02;;;;;;;;;3.00;3.00;;;;;12.37;41.43;100802.34;2103730;28;47401;-47
2022/04/11 02:24:03;;;;;;;;;5.50;4.25;;;;;12.37;41.29;100797.03;2101266;28;46952;-50
2022/04/11 02:25:04;;;;;;;;;4.00;4.00;;;;;12.37;41.48;100794.38;2111459;27;48041;-51
2022/04/11 02:26:04;;;;;;;;;5.50;4.25;;;;;12.38;41.28;100797.91;2109809;27;48206;-49
2022/04/11 02:27:05;;;;;;;;;4.67;3.33;;;;;12.38;41.15;100795.22;2110267;27;47696;-48
2022/04/11 02:28:06;;;;;;;;;4.75;4.75;;;;;12.38;41.30;100790.78;2111375;27;47450;-50
2022/04/11 02:29:06;;;;;;;;;4.25;4.25;;;;;12.36;41.37;100784.63;2090841;28;47611;-48
2022/04/11 02:30:07;;;;;;;;;5.67;2.33;;;;;12.37;41.27;100793.50;2080236;28;47620;-48
2022/04/11 02:31:08;;;;;;;;;4.00;4.00;;;;;12.37;41.12;100786.38;2105700;27;48118;-49
2022/04/11 02:32:09;;;;;;;;;5.00;5.00;;;;;12.35;41.21;100785.56;2104393;27;48066;-49
2022/04/11 02:33:09;;;;;;;;;4.00;3.67;;;;;12.34;41.18;100783.81;2112089;27;47653;-52
2022/04/11 02:34:09;;;;;;;;;4.00;4.00;;;;;12.35;41.32;100785.56;2110739;27;47499;-50
2022/04/11 02:35:11;;;;;;;;;3.00;3.00;;;;;12.33;41.21;100774.09;2109965;27;47907;-50
2022/04/11 02:36:11;;;;;;;;;4.20;4.20;;;;;12.33;41.44;100781.19;2112791;27;47396;-51
2022/04/11 02:37:12;;;;;;;;;5.00;4.00;;;;;12.33;41.40;100781.19;2105162;27;47782;-53
2022/04/11 02:38:13;;;;;;;;;4.50;4.50;;;;;12.31;41.43;100781.22;2106838;27;47738;-48
2022/04/11 02:39:14;;;;;;;;;5.60;4.60;;;;;12.31;41.43;100780.34;2104617;27;48188;-50
2022/04/11 02:40:14;;;;;;;;;4.00;4.00;;;;;12.31;41.36;100777.69;2110191;27;47576;-49
2022/04/11 02:41:15;;;;;;;;;3.00;3.00;;;;;12.30;41.45;100779.47;2112605;27;47372;-48
2022/04/11 02:42:26;;;;;;;;;4.00;4.00;;;;;12.31;41.07;100780.34;2103563;28;47795;-50
2022/04/11 02:43:27;;;;;;;;;3.40;3.40;;;;;12.30;41.24;100775.94;2102932;28;47583;-50
2022/04/11 02:44:28;;;;;;;;;4.00;4.00;;;;;12.28;41.44;100780.44;2105134;27;47989;-50
2022/04/11 02:45:28;;;;;;;;;4.25;4.00;;;;;12.26;41.29;100772.50;2112756;27;47406;-47
2022/04/11 02:46:28;;;;;;;;;4.50;4.00;;;;;12.25;41.22;100770.75;2112494;27;47790;-49
2022/04/11 02:47:29;;;;;;;;;4.00;4.00;;;;;12.24;41.40;100771.66;2105851;27;47653;-50
2022/04/11 02:48:29;;;;;;;;;3.00;3.00;;;;;12.24;41.47;100776.13;2099404;27;47565;-51
2022/04/11 02:49:30;;;;;;;;;4.50;4.50;;;;;12.23;41.45;100774.38;2101118;27;47301;-49
2022/04/11 02:50:30;;;;;;;;;3.67;3.67;;;;;12.22;41.55;100775.28;2086321;28;48165;-51
2022/04/11 02:51:30;;;;;;;;;2.33;2.33;;;;;12.21;41.38;100777.09;2075297;28;48056;-50
2022/04/11 02:52:32;;;;;;;;;3.50;3.50;;;;;12.21;41.34;100765.56;2097218;27;47804;-52
2022/04/11 02:53:32;;;;;;;;;5.00;4.00;;;;;12.21;41.27;100774.41;2112670;27;47674;-49
2022/04/11 02:54:33;;;;;;;;;3.50;3.50;;;;;12.20;41.41;100770.03;2111732;27;47459;-50
2022/04/11 02:55:33;;;;;;;;;3.00;3.00;;;;;12.21;41.23;100766.44;2113024;27;47635;-50
2022/04/11 02:56:34;;;;;;;;;4.00;4.00;;;;;12.20;41.18;100764.69;2111849;27;47932;-49
2022/04/11 02:57:38;;;;;;;;;3.75;3.75;;;;;12.19;41.31;100768.25;2112655;27;47349;-49
2022/04/11 02:58:38;;;;;;;;;3.40;3.40;;;;;12.19;41.43;100760.25;2112580;27;47601;-47
2022/04/11 02:59:39;;;;;;;;;5.00;4.25;;;;;12.19;41.36;100760.25;2105308;27;47140;-51
2022/04/11 03:00:39;;;;;;;;;4.00;4.00;;;;;12.19;41.23;100754.06;2086195;28;47202;-49
2022/04/11 03:01:40;;;;;;;;;4.25;4.25;;;;;12.19;41.38;100749.63;2083743;28;47697;-49
2022/04/11 03:02:40;;;;;;;;;4.67;3.67;;;;;12.18;41.09;100742.56;2092573;28;47362;-48
2022/04/11 03:03:41;;;;;;;;;4.00;4.00;;;;;12.17;41.15;100735.50;2113764;27;47424;-48
2022/04/11 03:04:42;;;;;;;;;3.33;3.33;;;;;12.17;41.15;100740.81;2114125;27;48111;-51
2022/04/11 03:05:42;;;;;;;;;5.75;4.25;;;;;12.17;41.33;100737.28;2106633;27;47489;-53
2022/04/11 03:06:42;;;;;;;;;4.50;4.00;;;;;12.17;41.24;100739.94;2113937;27;47090;-52
2022/04/11 03:07:43;;;;;;;;;4.00;4.00;;;;;12.16;41.16;100731.09;2108787;27;47430;-51
2022/04/11 03:08:43;;;;;;;;;4.00;4.00;;;;;12.17;41.29;100735.50;2111544;27;48382;-49
2022/04/11 03:09:44;;;;;;;;;5.75;5.75;;;;;12.17;41.36;100729.31;2111820;27;47416;-52
2022/04/11 03:10:44;;;;;;;;;3.00;3.00;;;;;12.17;40.99;100734.63;2109033;27;47553;-47
2022/04/11 03:11:44;;;;;;;;;9.25;5.75;;;;;12.16;41.42;100733.75;2113461;27;47681;-50
2022/04/11 03:12:45;;;;;;;;;6.00;5.00;;;;;12.16;41.38;100740.84;2100881;28;47296;-48
2022/04/11 03:13:47;;;;;;;;;5.00;5.00;;;;;12.15;41.54;100731.13;2098959;28;47252;-50
2022/04/11 03:14:51;;;;;;;;;4.40;4.20;;;;;12.15;41.55;100729.34;2113387;27;48542;-47
2022/04/11 03:15:52;;;;;;;;;1.25;0.75;;;;;12.15;41.40;100731.13;2108966;27;47992;-48
2022/04/11 03:16:52;;;;;;;;;3.33;3.33;;;;;12.15;41.55;100729.34;2110848;27;47673;-48
2022/04/11 03:17:52;;;;;;;;;5.00;5.00;;;;;12.14;41.31;100719.63;2112227;27;47530;-49
2022/04/11 03:18:53;;;;;;;;;5.00;3.75;;;;;12.14;41.62;100726.72;2113823;27;47486;-49
2022/04/11 03:19:53;;;;;;;;;4.50;4.50;;;;;12.13;41.37;100723.19;2112652;27;47710;-54
2022/04/11 03:20:54;;;;;;;;;4.50;4.50;;;;;12.14;41.51;100718.75;2110387;27;48038;-51
2022/04/11 03:21:54;;;;;;;;;4.00;4.00;;;;;12.13;41.28;100723.19;2104613;27;47887;-51
2022/04/11 03:22:55;;;;;;;;;3.25;3.00;;;;;12.12;41.54;100715.25;2113478;27;47666;-49
2022/04/11 03:23:55;;;;;;;;;3.50;3.50;;;;;12.12;41.33;100712.59;2108695;27;48046;-53
2022/04/11 03:24:55;;;;;;;;;5.00;4.00;;;;;12.13;41.25;100722.34;2114148;27;48115;-52
2022/04/11 03:25:56;;;;;;;;;4.50;4.50;;;;;12.11;41.31;100718.84;2113979;27;47782;-48
2022/04/11 03:26:56;;;;;;;;;3.00;3.00;;;;;12.11;41.39;100726.81;2108360;27;47660;-52
2022/04/11 03:27:57;;;;;;;;;3.75;3.75;;;;;12.10;41.60;100723.28;2112306;27;47868;-50
2022/04/11 03:28:57;;;;;;;;;6.00;4.75;;;;;12.10;41.64;100727.75;2110183;27;47249;-48
2022/04/11 03:29:57;;;;;;;;;4.33;4.00;;;;;12.08;41.18;100726.00;2108934;27;47299;-52
2022/04/11 03:30:59;;;;;;;;;4.75;4.75;;;;;12.07;41.24;100726.91;2113697;27;47406;-48
2022/04/11 03:32:00;;;;;;;;;3.00;3.00;;;;;12.06;41.51;100725.16;2109026;27;47908;-50
2022/04/11 03:33:00;;;;;;;;;3.50;3.50;;;;;12.06;41.46;100724.28;2105762;28;47116;-47
2022/04/11 03:34:00;;;;;;;;;8.00;8.00;;;;;12.04;41.53;100724.31;2105506;28;47829;-52
2022/04/11 03:35:01;;;;;;;;;6.00;6.00;;;;;12.03;41.36;100725.25;2105389;27;47982;-50
2022/04/11 03:36:02;;;;;;;;;6.25;5.00;;;;;12.02;41.37;100730.59;2105736;28;47575;-49
2022/04/11 03:37:02;;;;;;;;;5.25;5.25;;;;;12.01;41.58;100731.53;2105585;28;48172;-48
2022/04/11 03:38:03;;;;;;;;;3.75;3.75;;;;;12.00;41.45;100728.00;2104579;28;47253;-49
2022/04/11 03:39:03;;;;;;;;;4.75;3.50;;;;;12.01;41.10;100726.19;2099191;28;47870;-53
2022/04/11 03:40:06;;;;;;;;;6.25;6.25;;;;;12.01;41.32;100726.19;2105366;28;47787;-49
2022/04/11 03:41:07;;;;;;;;;3.40;3.40;;;;;12.00;41.21;100724.47;2104672;28;46286;-53
2022/04/11 03:42:08;;;;;;;;;3.50;3.50;;;;;12.00;41.54;100728.00;2104302;28;47355;-49
2022/04/11 03:43:08;;;;;;;;;6.00;6.00;;;;;11.99;41.24;100730.69;2105663;28;47449;-49
2022/04/11 03:44:10;;;;;;;;;3.00;3.00;;;;;11.99;41.30;100720.06;2113813;27;48210;-50
2022/04/11 03:45:11;;;;;;;;;4.20;4.20;;;;;11.98;41.09;100720.97;2107599;27;47371;-48
2022/04/11 03:46:12;;;;;;;;;6.40;4.80;;;;;11.97;41.27;100722.75;2105554;28;47701;-51
2022/04/11 03:47:12;;;;;;;;;4.00;3.50;;;;;11.98;41.32;100724.50;2105646;28;48066;-51
2022/04/11 03:48:12;;;;;;;;;4.00;4.00;;;;;11.97;41.37;100721.88;2105506;28;47824;-50
2022/04/11 03:49:13;;;;;;;;;5.00;5.00;;;;;11.97;41.49;100720.09;2105604;28;47732;-51
2022/04/11 03:50:13;;;;;;;;;4.50;4.00;;;;;11.96;41.40;100715.69;2105554;27;47282;-52
2022/04/11 03:51:14;;;;;;;;;4.00;4.00;;;;;11.96;41.21;100710.38;2105524;28;47141;-51
2022/04/11 03:52:14;;;;;;;;;4.75;4.75;;;;;11.94;41.62;100709.56;2105581;28;48088;-48
2022/04/11 03:53:16;;;;;;;;;4.33;4.33;;;;;11.93;41.08;100704.25;2105148;28;47715;-49
2022/04/11 03:54:16;;;;;;;;;3.60;3.60;;;;;11.94;41.50;100708.66;2096277;28;47939;-50
2022/04/11 03:55:17;;;;;;;;;4.75;4.75;;;;;11.94;41.41;100709.56;2096511;28;47940;-49
2022/04/11 03:56:17;;;;;;;;;2.00;2.00;;;;;11.93;41.53;100705.13;2104743;28;47248;-50
2022/04/11 03:57:18;;;;;;;;;4.00;4.00;;;;;11.93;41.36;100701.59;2105424;28;47566;-50
2022/04/11 03:58:19;;;;;;;;;3.75;3.00;;;;;11.92;41.15;100700.72;2105530;27;48107;-49
2022/04/11 03:59:19;;;;;;;;;3.25;3.25;;;;;11.90;41.22;100696.38;2105536;28;47627;-50
2022/04/11 04:00:20;;;;;;;;;4.25;4.25;;;;;11.91;41.35;100700.75;2105161;28;47343;-47
2022/04/11 04:01:20;;;;;;;;;4.00;4.00;;;;;11.90;41.38;100694.56;2096729;28;47537;-51
2022/04/11 04:02:21;;;;;;;;;5.00;5.00;;;;;11.90;41.17;100699.91;2099365;28;47636;-47
2022/04/11 04:03:21;;;;;;;;;2.50;2.50;;;;;11.89;41.21;100687.50;2097055;28;47530;-48
2022/04/11 04:04:21;;;;;;;;;4.00;4.00;;;;;11.88;41.24;100687.56;2102402;28;47899;-50
2022/04/11 04:05:22;;;;;;;;;3.00;3.00;;;;;11.89;41.22;100691.97;2105410;28;47088;-48
2022/04/11 04:06:23;;;;;;;;;3.00;3.00;;;;;11.89;41.44;100678.66;2105329;28;47870;-52
2022/04/11 04:07:23;;;;;;;;;4.00;4.00;;;;;11.88;41.19;100685.78;2105520;28;47728;-48
2022/04/11 04:08:23;;;;;;;;;5.00;4.00;;;;;11.88;41.40;100688.44;2105518;28;47802;-48
2022/04/11 04:09:24;;;;;;;;;5.00;4.00;;;;;11.86;41.41;100684.94;2096238;28;47696;-52
2022/04/11 04:10:26;;;;;;;;;4.00;4.00;;;;;11.87;41.18;100677.84;2093168;28;47632;-52
2022/04/11 04:11:26;;;;;;;;;3.00;2.00;;;;;11.85;41.50;100675.22;2105334;28;47481;-53
2022/04/11 04:12:27;;;;;;;;;3.50;3.25;;;;;11.84;41.34;100673.50;2105568;27;48260;-52
2022/04/11 04:13:27;;;;;;;;;4.00;4.00;;;;;11.84;41.36;100677.94;2104651;27;46593;-50
2022/04/11 04:14:28;;;;;;;;;4.50;4.50;;;;;11.83;41.40;100677.06;2113485;27;47456;-50
2022/04/11 04:15:29;;;;;;;;;4.50;3.25;;;;;11.83;41.56;100678.84;2109715;27;48011;-50
2022/04/11 04:16:29;;;;;;;;;2.67;2.67;;;;;11.83;41.51;100673.53;2109375;27;47550;-48
2022/04/11 04:17:29;;;;;;;;;5.00;4.50;;;;;11.83;41.42;100681.50;2112047;27;47730;-48
2022/04/11 04:18:30;;;;;;;;;3.00;3.00;;;;;11.83;41.32;100676.19;2107779;27;47866;-49
2022/04/11 04:19:30;;;;;;;;;3.33;2.00;;;;;11.83;41.22;100674.41;2097078;28;47560;-48
2022/04/11 04:20:31;;;;;;;;;5.00;5.00;;;;;11.83;41.44;100673.53;2110273;27;48084;-48
2022/04/11 04:21:31;;;;;;;;;5.00;4.75;;;;;11.83;41.33;100673.53;2110395;27;47521;-48
2022/04/11 04:22:31;;;;;;;;;4.50;4.00;;;;;11.82;41.41;100677.09;2104570;28;47095;-52
2022/04/11 04:23:32;;;;;;;;;5.33;5.33;;;;;11.81;41.13;100681.53;2101066;28;46825;-49
2022/04/11 04:24:34;;;;;;;;;4.00;4.00;;;;;11.80;41.44;100679.78;2111993;27;47924;-51
2022/04/11 04:25:36;;;;;;;;;5.00;5.00;;;;;11.79;41.45;100681.56;2112070;27;48102;-49
2022/04/11 04:26:36;;;;;;;;;3.60;3.60;;;;;11.79;41.54;100673.59;2101241;28;48163;-48
2022/04/11 04:27:36;;;;;;;;;5.75;4.50;;;;;11.80;41.72;100682.44;2104353;28;47949;-51
2022/04/11 04:28:37;;;;;;;;;4.25;4.25;;;;;11.79;41.25;100676.25;2113629;27;47542;-52
2022/04/11 04:29:37;;;;;;;;;5.00;5.00;;;;;11.78;41.47;100677.13;2109842;27;48805;-48
2022/04/11 04:30:38;;;;;;;;;4.00;4.00;;;;;11.79;41.45;100678.03;2098745;27;47777;-51
2022/04/11 04:31:38;;;;;;;;;4.00;3.00;;;;;11.77;41.40;100675.38;2106268;27;47301;-49
2022/04/11 04:32:39;;;;;;;;;4.00;4.00;;;;;11.79;41.60;100673.59;2107584;27;47706;-53
2022/04/11 04:33:39;;;;;;;;;4.75;4.75;;;;;11.78;41.51;100674.47;2113922;27;47737;-49
2022/04/11 04:34:41;;;;;;;;;4.00;4.00;;;;;11.79;41.10;100662.97;2109769;27;47654;-51
2022/04/11 04:35:41;;;;;;;;;5.40;4.00;;;;;11.78;41.39;100668.28;2112596;27;47406;-51
2022/04/11 04:36:42;;;;;;;;;6.00;6.00;;;;;11.77;41.60;100659.44;2107202;27;48073;-48
2022/04/11 04:37:42;;;;;;;;;5.00;5.00;;;;;11.76;41.39;100656.81;2105877;27;47318;-50
2022/04/11 04:38:43;;;;;;;;;4.00;4.00;;;;;11.77;41.58;100658.56;2113789;27;47218;-50
2022/04/11 04:39:43;;;;;;;;;5.25;5.25;;;;;11.76;41.30;100656.81;2113637;27;48205;-48
2022/04/11 04:40:44;;;;;;;;;2.25;2.00;;;;;11.76;41.24;100664.81;2111195;27;47341;-50
2022/04/11 04:41:44;;;;;;;;;4.50;4.50;;;;;11.75;41.41;100655.97;2112319;27;48033;-51
2022/04/11 04:42:45;;;;;;;;;3.50;3.50;;;;;11.75;41.35;100655.97;2109638;27;48091;-52